sensor_id;sensor_type;location;lat;lon;timestamp;P1;durP1;ratioP1;P2;durP2;ratioP2
5904;SDS011;2978;42.012;24.880;2023-02-11T00:01:36;3.30;;;2.67;;
5904;SDS011;2978;42.012;24.880;2023-02-11T00:04:02;4.17;;;3.03;;
5904;SDS011;2978;42.012;24.880;2023-02-11T00:06:29;3.17;;;2.83;;
5904;SDS011;2978;42.012;24.880;2023-02-11T00:08:56;2.77;;;2.33;;
5904;SDS011;2978;42.012;24.880;2023-02-11T00:11:22;3.10;;;2.77;;
5904;SDS011;2978;42.012;24.880;2023-02-11T00:13:49;4.70;;;2.80;;
5904;SDS011;2978;42.012;24.880;2023-02-11T00:16:19;3.87;;;2.50;;
5904;SDS011;2978;42.012;24.880;2023-02-11T00:18:44;3.93;;;2.77;;
5904;SDS011;2978;42.012;24.880;2023-02-11T00:21:14;8.43;;;3.47;;
5904;SDS011;2978;42.012;24.880;2023-02-11T00:23:41;3.57;;;2.73;;
5904;SDS011;2978;42.012;24.880;2023-02-11T00:26:27;5.40;;;2.67;;
5904;SDS011;2978;42.012;24.880;2023-02-11T00:28:55;3.60;;;2.93;;
5904;SDS011;2978;42.012;24.880;2023-02-11T00:31:21;4.53;;;2.60;;
5904;SDS011;2978;42.012;24.880;2023-02-11T00:33:47;4.60;;;2.77;;
5904;SDS011;2978;42.012;24.880;2023-02-11T00:36:14;3.80;;;2.20;;
5904;SDS011;2978;42.012;24.880;2023-02-11T00:38:42;3.20;;;2.70;;
5904;SDS011;2978;42.012;24.880;2023-02-11T00:41:09;4.67;;;2.70;;
5904;SDS011;2978;42.012;24.880;2023-02-11T00:43:35;7.70;;;2.60;;
5904;SDS011;2978;42.012;24.880;2023-02-11T00:46:01;8.03;;;2.70;;
5904;SDS011;2978;42.012;24.880;2023-02-11T00:48:27;4.87;;;2.80;;
5904;SDS011;2978;42.012;24.880;2023-02-11T00:50:53;4.47;;;3.20;;
5904;SDS011;2978;42.012;24.880;2023-02-11T00:53:19;5.13;;;3.50;;
5904;SDS011;2978;42.012;24.880;2023-02-11T00:55:44;5.03;;;3.23;;
5904;SDS011;2978;42.012;24.880;2023-02-11T00:58:09;5.33;;;3.90;;
5904;SDS011;2978;42.012;24.880;2023-02-11T01:00:35;4.90;;;3.33;;
5904;SDS011;2978;42.012;24.880;2023-02-11T01:03:00;11.73;;;3.50;;
5904;SDS011;2978;42.012;24.880;2023-02-11T01:05:26;4.10;;;2.90;;
5904;SDS011;2978;42.012;24.880;2023-02-11T01:07:52;9.70;;;2.83;;
5904;SDS011;2978;42.012;24.880;2023-02-11T01:10:18;8.07;;;3.83;;
5904;SDS011;2978;42.012;24.880;2023-02-11T01:12:43;5.97;;;3.00;;
5904;SDS011;2978;42.012;24.880;2023-02-11T01:15:11;6.57;;;3.10;;
5904;SDS011;2978;42.012;24.880;2023-02-11T01:17:38;15.33;;;3.20;;
5904;SDS011;2978;42.012;24.880;2023-02-11T01:20:04;4.90;;;3.07;;
5904;SDS011;2978;42.012;24.880;2023-02-11T01:22:32;4.60;;;3.00;;
5904;SDS011;2978;42.012;24.880;2023-02-11T01:24:58;7.30;;;3.30;;
5904;SDS011;2978;42.012;24.880;2023-02-11T01:27:24;4.40;;;3.37;;
5904;SDS011;2978;42.012;24.880;2023-02-11T01:29:50;6.40;;;3.27;;
5904;SDS011;2978;42.012;24.880;2023-02-11T01:32:15;5.87;;;3.03;;
5904;SDS011;2978;42.012;24.880;2023-02-11T01:34:42;16.73;;;3.20;;
5904;SDS011;2978;42.012;24.880;2023-02-11T01:37:07;50.70;;;5.13;;
5904;SDS011;2978;42.012;24.880;2023-02-11T01:39:33;4.33;;;2.63;;
5904;SDS011;2978;42.012;24.880;2023-02-11T01:41:59;7.60;;;2.93;;
5904;SDS011;2978;42.012;24.880;2023-02-11T01:44:32;7.13;;;2.50;;
5904;SDS011;2978;42.012;24.880;2023-02-11T01:47:00;6.70;;;2.80;;
5904;SDS011;2978;42.012;24.880;2023-02-11T01:49:33;5.07;;;2.97;;
5904;SDS011;2978;42.012;24.880;2023-02-11T01:52:07;4.03;;;3.10;;
5904;SDS011;2978;42.012;24.880;2023-02-11T01:54:38;3.70;;;2.77;;
5904;SDS011;2978;42.012;24.880;2023-02-11T01:57:25;4.83;;;3.03;;
5904;SDS011;2978;42.012;24.880;2023-02-11T02:02:42;3.13;;;2.53;;
5904;SDS011;2978;42.012;24.880;2023-02-11T02:08:13;3.13;;;2.27;;
5904;SDS011;2978;42.012;24.880;2023-02-11T02:11:09;4.80;;;2.33;;
5904;SDS011;2978;42.012;24.880;2023-02-11T02:13:35;8.63;;;2.63;;
5904;SDS011;2978;42.012;24.880;2023-02-11T02:16:02;4.07;;;2.87;;
5904;SDS011;2978;42.012;24.880;2023-02-11T02:27:11;2.53;;;2.33;;
5904;SDS011;2978;42.012;24.880;2023-02-11T02:38:12;2.70;;;2.50;;
5904;SDS011;2978;42.012;24.880;2023-02-11T02:43:13;4.27;;;3.57;;
5904;SDS011;2978;42.012;24.880;2023-02-11T02:45:39;4.33;;;3.00;;
5904;SDS011;2978;42.012;24.880;2023-02-11T02:48:05;3.60;;;2.97;;
5904;SDS011;2978;42.012;24.880;2023-02-11T02:50:33;3.10;;;2.80;;
5904;SDS011;2978;42.012;24.880;2023-02-11T03:01:08;4.50;;;2.73;;
5904;SDS011;2978;42.012;24.880;2023-02-11T03:06:29;3.70;;;2.70;;
5904;SDS011;2978;42.012;24.880;2023-02-11T03:09:06;9.40;;;5.13;;
5904;SDS011;2978;42.012;24.880;2023-02-11T03:11:36;8.63;;;4.33;;
5904;SDS011;2978;42.012;24.880;2023-02-11T03:14:05;8.20;;;4.30;;
5904;SDS011;2978;42.012;24.880;2023-02-11T03:16:34;5.17;;;3.40;;
5904;SDS011;2978;42.012;24.880;2023-02-11T03:19:08;2.90;;;2.60;;
5904;SDS011;2978;42.012;24.880;2023-02-11T03:21:37;4.70;;;2.70;;
5904;SDS011;2978;42.012;24.880;2023-02-11T03:24:06;3.73;;;2.60;;
5904;SDS011;2978;42.012;24.880;2023-02-11T03:26:39;3.63;;;2.40;;
5904;SDS011;2978;42.012;24.880;2023-02-11T03:34:14;5.23;;;2.83;;
5904;SDS011;2978;42.012;24.880;2023-02-11T03:36:50;5.33;;;2.60;;
5904;SDS011;2978;42.012;24.880;2023-02-11T03:39:26;7.47;;;3.50;;
5904;SDS011;2978;42.012;24.880;2023-02-11T03:41:56;3.27;;;2.67;;
5904;SDS011;2978;42.012;24.880;2023-02-11T03:44:25;5.97;;;2.83;;
5904;SDS011;2978;42.012;24.880;2023-02-11T03:46:58;3.37;;;3.07;;
5904;SDS011;2978;42.012;24.880;2023-02-11T03:49:26;4.60;;;2.50;;
5904;SDS011;2978;42.012;24.880;2023-02-11T03:51:53;3.87;;;3.23;;
5904;SDS011;2978;42.012;24.880;2023-02-11T03:54:25;3.17;;;2.50;;
5904;SDS011;2978;42.012;24.880;2023-02-11T03:56:55;3.03;;;2.73;;
5904;SDS011;2978;42.012;24.880;2023-02-11T03:59:22;6.73;;;2.40;;
5904;SDS011;2978;42.012;24.880;2023-02-11T04:01:48;3.30;;;2.57;;
5904;SDS011;2978;42.012;24.880;2023-02-11T04:04:13;4.30;;;2.70;;
5904;SDS011;2978;42.012;24.880;2023-02-11T04:06:39;4.13;;;2.80;;
5904;SDS011;2978;42.012;24.880;2023-02-11T04:09:04;2.83;;;2.13;;
5904;SDS011;2978;42.012;24.880;2023-02-11T04:11:30;9.73;;;3.20;;
5904;SDS011;2978;42.012;24.880;2023-02-11T04:13:55;3.57;;;2.57;;
5904;SDS011;2978;42.012;24.880;2023-02-11T04:16:21;3.83;;;2.57;;
5904;SDS011;2978;42.012;24.880;2023-02-11T04:18:46;3.70;;;2.90;;
5904;SDS011;2978;42.012;24.880;2023-02-11T04:21:12;5.40;;;2.67;;
5904;SDS011;2978;42.012;24.880;2023-02-11T04:23:37;4.43;;;2.57;;
5904;SDS011;2978;42.012;24.880;2023-02-11T04:26:03;3.87;;;2.87;;
5904;SDS011;2978;42.012;24.880;2023-02-11T04:28:28;8.37;;;3.13;;
5904;SDS011;2978;42.012;24.880;2023-02-11T04:30:54;3.40;;;2.80;;
5904;SDS011;2978;42.012;24.880;2023-02-11T04:33:20;3.80;;;2.50;;
5904;SDS011;2978;42.012;24.880;2023-02-11T04:35:46;3.93;;;2.20;;
5904;SDS011;2978;42.012;24.880;2023-02-11T04:38:12;3.37;;;2.90;;
5904;SDS011;2978;42.012;24.880;2023-02-11T04:40:37;16.03;;;2.97;;
5904;SDS011;2978;42.012;24.880;2023-02-11T04:43:04;4.40;;;2.20;;
5904;SDS011;2978;42.012;24.880;2023-02-11T04:45:30;2.67;;;2.17;;
5904;SDS011;2978;42.012;24.880;2023-02-11T04:47:55;2.23;;;2.03;;
5904;SDS011;2978;42.012;24.880;2023-02-11T04:50:20;6.53;;;2.30;;
5904;SDS011;2978;42.012;24.880;2023-02-11T04:52:46;4.60;;;2.30;;
5904;SDS011;2978;42.012;24.880;2023-02-11T04:55:12;6.43;;;2.63;;
5904;SDS011;2978;42.012;24.880;2023-02-11T04:57:37;3.00;;;2.60;;
5904;SDS011;2978;42.012;24.880;2023-02-11T05:00:03;2.60;;;2.40;;
5904;SDS011;2978;42.012;24.880;2023-02-11T05:02:29;2.47;;;2.00;;
5904;SDS011;2978;42.012;24.880;2023-02-11T05:04:55;6.17;;;2.67;;
5904;SDS011;2978;42.012;24.880;2023-02-11T05:07:20;7.83;;;3.43;;
5904;SDS011;2978;42.012;24.880;2023-02-11T05:09:45;5.07;;;2.70;;
5904;SDS011;2978;42.012;24.880;2023-02-11T05:12:11;3.17;;;2.47;;
5904;SDS011;2978;42.012;24.880;2023-02-11T05:14:36;6.77;;;3.30;;
5904;SDS011;2978;42.012;24.880;2023-02-11T05:17:02;5.13;;;3.00;;
5904;SDS011;2978;42.012;24.880;2023-02-11T05:19:27;6.57;;;2.60;;
5904;SDS011;2978;42.012;24.880;2023-02-11T05:21:53;4.90;;;2.40;;
5904;SDS011;2978;42.012;24.880;2023-02-11T05:24:18;3.60;;;2.77;;
5904;SDS011;2978;42.012;24.880;2023-02-11T05:26:43;6.07;;;2.47;;
5904;SDS011;2978;42.012;24.880;2023-02-11T05:29:09;5.83;;;3.20;;
5904;SDS011;2978;42.012;24.880;2023-02-11T05:31:34;3.63;;;2.30;;
5904;SDS011;2978;42.012;24.880;2023-02-11T05:34:00;2.93;;;2.60;;
5904;SDS011;2978;42.012;24.880;2023-02-11T05:36:27;3.93;;;3.53;;
5904;SDS011;2978;42.012;24.880;2023-02-11T05:38:53;3.63;;;2.93;;
5904;SDS011;2978;42.012;24.880;2023-02-11T05:41:18;3.80;;;2.80;;
5904;SDS011;2978;42.012;24.880;2023-02-11T05:43:46;7.53;;;2.63;;
5904;SDS011;2978;42.012;24.880;2023-02-11T05:46:12;8.40;;;3.07;;
5904;SDS011;2978;42.012;24.880;2023-02-11T05:48:38;3.83;;;2.70;;
5904;SDS011;2978;42.012;24.880;2023-02-11T05:51:03;4.37;;;2.93;;
5904;SDS011;2978;42.012;24.880;2023-02-11T05:53:29;8.40;;;2.83;;
5904;SDS011;2978;42.012;24.880;2023-02-11T05:55:54;5.77;;;3.07;;
5904;SDS011;2978;42.012;24.880;2023-02-11T05:58:19;5.57;;;3.00;;
5904;SDS011;2978;42.012;24.880;2023-02-11T06:00:45;3.40;;;2.53;;
5904;SDS011;2978;42.012;24.880;2023-02-11T06:03:10;6.37;;;3.33;;
5904;SDS011;2978;42.012;24.880;2023-02-11T06:05:36;6.30;;;3.07;;
5904;SDS011;2978;42.012;24.880;2023-02-11T06:08:01;3.40;;;3.10;;
5904;SDS011;2978;42.012;24.880;2023-02-11T06:10:27;5.60;;;2.70;;
5904;SDS011;2978;42.012;24.880;2023-02-11T06:12:52;4.67;;;2.83;;
5904;SDS011;2978;42.012;24.880;2023-02-11T06:15:18;5.30;;;3.10;;
5904;SDS011;2978;42.012;24.880;2023-02-11T06:17:43;3.37;;;2.77;;
5904;SDS011;2978;42.012;24.880;2023-02-11T06:20:09;3.83;;;2.90;;
5904;SDS011;2978;42.012;24.880;2023-02-11T06:22:35;4.63;;;2.93;;
5904;SDS011;2978;42.012;24.880;2023-02-11T06:25:00;3.77;;;3.10;;
5904;SDS011;2978;42.012;24.880;2023-02-11T06:27:26;4.43;;;2.87;;
5904;SDS011;2978;42.012;24.880;2023-02-11T06:29:51;4.70;;;3.60;;
5904;SDS011;2978;42.012;24.880;2023-02-11T06:32:17;6.40;;;3.80;;
5904;SDS011;2978;42.012;24.880;2023-02-11T06:34:42;3.33;;;2.80;;
5904;SDS011;2978;42.012;24.880;2023-02-11T06:37:08;4.67;;;2.97;;
5904;SDS011;2978;42.012;24.880;2023-02-11T06:39:33;3.47;;;3.17;;
5904;SDS011;2978;42.012;24.880;2023-02-11T06:41:59;9.00;;;2.67;;
5904;SDS011;2978;42.012;24.880;2023-02-11T06:44:24;4.30;;;3.23;;
5904;SDS011;2978;42.012;24.880;2023-02-11T06:46:49;4.50;;;3.13;;
5904;SDS011;2978;42.012;24.880;2023-02-11T06:49:15;5.43;;;3.30;;
5904;SDS011;2978;42.012;24.880;2023-02-11T06:51:40;3.40;;;2.90;;
5904;SDS011;2978;42.012;24.880;2023-02-11T06:54:06;3.33;;;2.93;;
5904;SDS011;2978;42.012;24.880;2023-02-11T06:56:32;3.60;;;2.90;;
5904;SDS011;2978;42.012;24.880;2023-02-11T06:58:58;3.50;;;3.07;;
5904;SDS011;2978;42.012;24.880;2023-02-11T07:01:24;4.30;;;3.73;;
5904;SDS011;2978;42.012;24.880;2023-02-11T07:03:51;6.50;;;4.80;;
5904;SDS011;2978;42.012;24.880;2023-02-11T07:06:18;6.73;;;4.10;;
5904;SDS011;2978;42.012;24.880;2023-02-11T07:08:46;4.30;;;3.87;;
5904;SDS011;2978;42.012;24.880;2023-02-11T07:11:13;3.80;;;3.07;;
5904;SDS011;2978;42.012;24.880;2023-02-11T07:13:38;5.73;;;3.60;;
5904;SDS011;2978;42.012;24.880;2023-02-11T07:16:05;6.53;;;3.90;;
5904;SDS011;2978;42.012;24.880;2023-02-11T07:18:32;9.03;;;5.23;;
5904;SDS011;2978;42.012;24.880;2023-02-11T07:20:58;4.00;;;3.43;;
5904;SDS011;2978;42.012;24.880;2023-02-11T07:23:23;3.53;;;3.23;;
5904;SDS011;2978;42.012;24.880;2023-02-11T07:25:48;6.30;;;3.40;;
5904;SDS011;2978;42.012;24.880;2023-02-11T07:28:14;10.20;;;3.60;;
5904;SDS011;2978;42.012;24.880;2023-02-11T07:30:39;5.20;;;3.60;;
5904;SDS011;2978;42.012;24.880;2023-02-11T07:33:05;2.83;;;2.63;;
5904;SDS011;2978;42.012;24.880;2023-02-11T07:35:30;2.70;;;2.50;;
5904;SDS011;2978;42.012;24.880;2023-02-11T07:37:55;2.90;;;2.60;;
5904;SDS011;2978;42.012;24.880;2023-02-11T07:40:21;7.10;;;2.70;;
5904;SDS011;2978;42.012;24.880;2023-02-11T07:42:46;4.70;;;2.60;;
5904;SDS011;2978;42.012;24.880;2023-02-11T07:45:12;3.63;;;2.90;;
5904;SDS011;2978;42.012;24.880;2023-02-11T07:47:38;5.80;;;2.90;;
5904;SDS011;2978;42.012;24.880;2023-02-11T07:50:03;5.50;;;2.90;;
5904;SDS011;2978;42.012;24.880;2023-02-11T07:52:30;10.10;;;3.50;;
5904;SDS011;2978;42.012;24.880;2023-02-11T07:54:56;18.90;;;6.60;;
5904;SDS011;2978;42.012;24.880;2023-02-11T07:57:21;6.10;;;4.00;;
5904;SDS011;2978;42.012;24.880;2023-02-11T07:59:47;9.67;;;6.27;;
5904;SDS011;2978;42.012;24.880;2023-02-11T08:02:12;13.93;;;7.00;;
5904;SDS011;2978;42.012;24.880;2023-02-11T08:04:37;5.63;;;3.80;;
5904;SDS011;2978;42.012;24.880;2023-02-11T08:07:03;7.23;;;3.17;;
5904;SDS011;2978;42.012;24.880;2023-02-11T08:09:29;16.40;;;5.40;;
5904;SDS011;2978;42.012;24.880;2023-02-11T08:11:54;16.60;;;5.97;;
5904;SDS011;2978;42.012;24.880;2023-02-11T08:14:20;17.40;;;8.00;;
5904;SDS011;2978;42.012;24.880;2023-02-11T08:16:45;24.70;;;7.53;;
5904;SDS011;2978;42.012;24.880;2023-02-11T08:19:13;12.80;;;7.23;;
5904;SDS011;2978;42.012;24.880;2023-02-11T08:21:40;11.90;;;6.43;;
5904;SDS011;2978;42.012;24.880;2023-02-11T08:24:05;7.67;;;6.07;;
5904;SDS011;2978;42.012;24.880;2023-02-11T08:26:31;8.10;;;5.90;;
5904;SDS011;2978;42.012;24.880;2023-02-11T08:29:02;13.10;;;7.87;;
5904;SDS011;2978;42.012;24.880;2023-02-11T08:31:34;16.17;;;7.60;;
5904;SDS011;2978;42.012;24.880;2023-02-11T08:34:01;14.10;;;9.30;;
5904;SDS011;2978;42.012;24.880;2023-02-11T08:36:30;12.90;;;7.87;;
5904;SDS011;2978;42.012;24.880;2023-02-11T08:38:58;14.20;;;7.60;;
5904;SDS011;2978;42.012;24.880;2023-02-11T08:41:27;14.10;;;7.50;;
5904;SDS011;2978;42.012;24.880;2023-02-11T08:43:52;13.57;;;7.90;;
5904;SDS011;2978;42.012;24.880;2023-02-11T08:46:18;15.23;;;8.20;;
5904;SDS011;2978;42.012;24.880;2023-02-11T08:48:44;17.33;;;8.43;;
5904;SDS011;2978;42.012;24.880;2023-02-11T08:51:13;15.73;;;8.30;;
5904;SDS011;2978;42.012;24.880;2023-02-11T08:53:43;15.93;;;8.10;;
5904;SDS011;2978;42.012;24.880;2023-02-11T08:56:10;16.67;;;8.23;;
5904;SDS011;2978;42.012;24.880;2023-02-11T08:58:36;14.93;;;9.07;;
5904;SDS011;2978;42.012;24.880;2023-02-11T09:01:07;15.10;;;9.60;;
5904;SDS011;2978;42.012;24.880;2023-02-11T09:03:37;14.40;;;8.67;;
5904;SDS011;2978;42.012;24.880;2023-02-11T09:06:03;16.47;;;9.60;;
5904;SDS011;2978;42.012;24.880;2023-02-11T09:08:32;17.77;;;9.63;;
5904;SDS011;2978;42.012;24.880;2023-02-11T09:11:02;16.30;;;9.67;;
5904;SDS011;2978;42.012;24.880;2023-02-11T09:13:28;13.70;;;8.30;;
5904;SDS011;2978;42.012;24.880;2023-02-11T09:15:54;23.83;;;11.27;;
5904;SDS011;2978;42.012;24.880;2023-02-11T09:18:20;22.30;;;12.63;;
5904;SDS011;2978;42.012;24.880;2023-02-11T09:20:45;21.17;;;10.90;;
5904;SDS011;2978;42.012;24.880;2023-02-11T09:23:11;17.13;;;9.60;;
5904;SDS011;2978;42.012;24.880;2023-02-11T09:25:39;16.73;;;10.87;;
5904;SDS011;2978;42.012;24.880;2023-02-11T09:28:06;17.17;;;9.63;;
5904;SDS011;2978;42.012;24.880;2023-02-11T09:30:32;17.13;;;10.93;;
5904;SDS011;2978;42.012;24.880;2023-02-11T09:32:58;15.07;;;8.47;;
5904;SDS011;2978;42.012;24.880;2023-02-11T09:35:23;20.20;;;11.23;;
5904;SDS011;2978;42.012;24.880;2023-02-11T09:37:48;20.20;;;8.87;;
5904;SDS011;2978;42.012;24.880;2023-02-11T09:40:14;12.47;;;8.10;;
5904;SDS011;2978;42.012;24.880;2023-02-11T09:45:16;14.80;;;9.97;;
5904;SDS011;2978;42.012;24.880;2023-02-11T09:47:46;12.00;;;7.70;;
5904;SDS011;2978;42.012;24.880;2023-02-11T09:50:18;16.57;;;8.60;;
5904;SDS011;2978;42.012;24.880;2023-02-11T09:52:52;15.80;;;7.60;;
5904;SDS011;2978;42.012;24.880;2023-02-11T09:55:44;13.20;;;8.60;;
5904;SDS011;2978;42.012;24.880;2023-02-11T09:58:14;16.97;;;9.53;;
5904;SDS011;2978;42.012;24.880;2023-02-11T10:00:47;20.93;;;8.87;;
5904;SDS011;2978;42.012;24.880;2023-02-11T10:03:25;16.97;;;10.07;;
5904;SDS011;2978;42.012;24.880;2023-02-11T10:17:37;14.80;;;8.63;;
5904;SDS011;2978;42.012;24.880;2023-02-11T10:23:06;17.20;;;10.10;;
5904;SDS011;2978;42.012;24.880;2023-02-11T10:25:43;20.57;;;11.00;;
5904;SDS011;2978;42.012;24.880;2023-02-11T10:28:14;17.43;;;10.07;;
5904;SDS011;2978;42.012;24.880;2023-02-11T10:31:01;13.20;;;9.50;;
5904;SDS011;2978;42.012;24.880;2023-02-11T10:36:30;14.90;;;9.60;;
5904;SDS011;2978;42.012;24.880;2023-02-11T10:39:08;21.77;;;10.30;;
5904;SDS011;2978;42.012;24.880;2023-02-11T10:41:43;15.97;;;10.03;;
5904;SDS011;2978;42.012;24.880;2023-02-11T10:44:22;17.30;;;10.77;;
5904;SDS011;2978;42.012;24.880;2023-02-11T10:46:52;16.43;;;10.93;;
5904;SDS011;2978;42.012;24.880;2023-02-11T10:49:32;15.53;;;10.10;;
5904;SDS011;2978;42.012;24.880;2023-02-11T10:52:14;15.70;;;10.37;;
5904;SDS011;2978;42.012;24.880;2023-02-11T10:55:05;16.07;;;10.53;;
5904;SDS011;2978;42.012;24.880;2023-02-11T10:57:33;15.67;;;9.20;;
5904;SDS011;2978;42.012;24.880;2023-02-11T11:00:03;10.93;;;7.90;;
5904;SDS011;2978;42.012;24.880;2023-02-11T11:02:51;14.73;;;8.90;;
5904;SDS011;2978;42.012;24.880;2023-02-11T11:05:22;38.50;;;24.50;;
5904;SDS011;2978;42.012;24.880;2023-02-11T11:08:03;13.10;;;8.40;;
5904;SDS011;2978;42.012;24.880;2023-02-11T11:10:35;17.87;;;9.27;;
5904;SDS011;2978;42.012;24.880;2023-02-11T11:18:36;15.87;;;6.70;;
5904;SDS011;2978;42.012;24.880;2023-02-11T11:21:02;14.93;;;8.30;;
5904;SDS011;2978;42.012;24.880;2023-02-11T11:23:31;16.93;;;8.93;;
5904;SDS011;2978;42.012;24.880;2023-02-11T11:26:02;12.03;;;7.80;;
5904;SDS011;2978;42.012;24.880;2023-02-11T11:28:38;13.83;;;8.63;;
5904;SDS011;2978;42.012;24.880;2023-02-11T11:31:32;13.67;;;8.40;;
5904;SDS011;2978;42.012;24.880;2023-02-11T11:34:01;15.23;;;8.90;;
5904;SDS011;2978;42.012;24.880;2023-02-11T11:36:42;18.70;;;9.30;;
5904;SDS011;2978;42.012;24.880;2023-02-11T11:41:58;14.50;;;9.20;;
5904;SDS011;2978;42.012;24.880;2023-02-11T11:49:35;13.20;;;8.27;;
5904;SDS011;2978;42.012;24.880;2023-02-11T11:55:16;13.33;;;8.43;;
5904;SDS011;2978;42.012;24.880;2023-02-11T11:57:45;16.33;;;9.27;;
5904;SDS011;2978;42.012;24.880;2023-02-11T12:00:15;18.10;;;11.50;;
5904;SDS011;2978;42.012;24.880;2023-02-11T12:02:55;14.43;;;9.77;;
5904;SDS011;2978;42.012;24.880;2023-02-11T12:06:06;18.50;;;10.90;;
5904;SDS011;2978;42.012;24.880;2023-02-11T12:08:39;19.23;;;12.10;;
5904;SDS011;2978;42.012;24.880;2023-02-11T12:16:21;20.63;;;12.00;;
5904;SDS011;2978;42.012;24.880;2023-02-11T12:22:05;16.77;;;9.60;;
5904;SDS011;2978;42.012;24.880;2023-02-11T12:24:39;20.17;;;10.20;;
5904;SDS011;2978;42.012;24.880;2023-02-11T12:32:48;18.70;;;10.90;;
5904;SDS011;2978;42.012;24.880;2023-02-11T12:40:44;14.23;;;9.03;;
5904;SDS011;2978;42.012;24.880;2023-02-11T12:43:23;15.63;;;10.57;;
5904;SDS011;2978;42.012;24.880;2023-02-11T12:45:59;19.07;;;9.80;;
5904;SDS011;2978;42.012;24.880;2023-02-11T12:56:58;22.50;;;11.30;;
5904;SDS011;2978;42.012;24.880;2023-02-11T12:59:33;19.53;;;11.53;;
5904;SDS011;2978;42.012;24.880;2023-02-11T13:01:58;22.53;;;11.17;;
5904;SDS011;2978;42.012;24.880;2023-02-11T13:04:28;15.73;;;8.93;;
5904;SDS011;2978;42.012;24.880;2023-02-11T13:07:13;17.80;;;10.13;;
5904;SDS011;2978;42.012;24.880;2023-02-11T13:12:39;22.67;;;12.83;;
5904;SDS011;2978;42.012;24.880;2023-02-11T13:15:27;54.83;;;27.80;;
5904;SDS011;2978;42.012;24.880;2023-02-11T13:20:42;23.30;;;14.17;;
5904;SDS011;2978;42.012;24.880;2023-02-11T13:25:48;24.33;;;11.83;;
5904;SDS011;2978;42.012;24.880;2023-02-11T13:31:13;36.53;;;20.73;;
5904;SDS011;2978;42.012;24.880;2023-02-11T13:33:41;16.83;;;10.93;;
5904;SDS011;2978;42.012;24.880;2023-02-11T13:38:33;14.80;;;9.07;;
5904;SDS011;2978;42.012;24.880;2023-02-11T13:43:56;16.77;;;10.03;;
5904;SDS011;2978;42.012;24.880;2023-02-11T13:46:23;12.93;;;8.80;;
5904;SDS011;2978;42.012;24.880;2023-02-11T13:48:52;13.87;;;8.57;;
5904;SDS011;2978;42.012;24.880;2023-02-11T13:51:36;11.00;;;7.60;;
5904;SDS011;2978;42.012;24.880;2023-02-11T13:54:04;16.30;;;8.53;;
5904;SDS011;2978;42.012;24.880;2023-02-11T13:58:57;13.00;;;8.00;;
5904;SDS011;2978;42.012;24.880;2023-02-11T14:04:31;13.00;;;8.63;;
5904;SDS011;2978;42.012;24.880;2023-02-11T14:13:05;13.63;;;8.30;;
5904;SDS011;2978;42.012;24.880;2023-02-11T14:15:48;16.27;;;8.40;;
5904;SDS011;2978;42.012;24.880;2023-02-11T14:21:19;28.63;;;13.37;;
5904;SDS011;2978;42.012;24.880;2023-02-11T14:23:48;36.33;;;19.33;;
5904;SDS011;2978;42.012;24.880;2023-02-11T14:26:23;21.87;;;9.97;;
5904;SDS011;2978;42.012;24.880;2023-02-11T14:29:11;16.50;;;10.23;;
5904;SDS011;2978;42.012;24.880;2023-02-11T14:42:53;21.80;;;11.30;;
5904;SDS011;2978;42.012;24.880;2023-02-11T14:45:24;26.80;;;14.07;;
5904;SDS011;2978;42.012;24.880;2023-02-11T14:47:59;32.87;;;19.07;;
5904;SDS011;2978;42.012;24.880;2023-02-11T14:50:48;29.17;;;17.33;;
5904;SDS011;2978;42.012;24.880;2023-02-11T14:53:17;39.47;;;21.30;;
5904;SDS011;2978;42.012;24.880;2023-02-11T14:55:47;29.03;;;17.30;;
5904;SDS011;2978;42.012;24.880;2023-02-11T14:58:17;35.00;;;18.57;;
5904;SDS011;2978;42.012;24.880;2023-02-11T15:01:00;32.87;;;19.70;;
5904;SDS011;2978;42.012;24.880;2023-02-11T15:03:36;33.33;;;18.70;;
5904;SDS011;2978;42.012;24.880;2023-02-11T15:06:11;34.73;;;17.43;;
5904;SDS011;2978;42.012;24.880;2023-02-11T15:08:49;36.37;;;17.30;;
5904;SDS011;2978;42.012;24.880;2023-02-11T15:11:19;38.50;;;14.20;;
5904;SDS011;2978;42.012;24.880;2023-02-11T15:13:46;28.83;;;14.73;;
5904;SDS011;2978;42.012;24.880;2023-02-11T15:16:17;28.93;;;17.60;;
5904;SDS011;2978;42.012;24.880;2023-02-11T15:18:49;39.57;;;23.03;;
5904;SDS011;2978;42.012;24.880;2023-02-11T15:21:22;41.17;;;24.20;;
5904;SDS011;2978;42.012;24.880;2023-02-11T15:26:54;44.57;;;21.20;;
5904;SDS011;2978;42.012;24.880;2023-02-11T15:29:22;33.97;;;17.50;;
5904;SDS011;2978;42.012;24.880;2023-02-11T15:32:01;27.80;;;15.83;;
5904;SDS011;2978;42.012;24.880;2023-02-11T15:34:37;22.03;;;10.73;;
5904;SDS011;2978;42.012;24.880;2023-02-11T15:37:03;25.47;;;10.50;;
5904;SDS011;2978;42.012;24.880;2023-02-11T15:42:16;15.33;;;10.00;;
5904;SDS011;2978;42.012;24.880;2023-02-11T15:45:06;16.37;;;10.47;;
5904;SDS011;2978;42.012;24.880;2023-02-11T15:47:32;17.53;;;10.03;;
5904;SDS011;2978;42.012;24.880;2023-02-11T15:49:58;18.30;;;9.70;;
5904;SDS011;2978;42.012;24.880;2023-02-11T15:52:24;23.80;;;11.70;;
5904;SDS011;2978;42.012;24.880;2023-02-11T15:54:52;27.20;;;11.77;;
5904;SDS011;2978;42.012;24.880;2023-02-11T15:57:20;25.40;;;12.83;;
5904;SDS011;2978;42.012;24.880;2023-02-11T15:59:47;26.83;;;13.33;;
5904;SDS011;2978;42.012;24.880;2023-02-11T16:04:52;28.33;;;13.70;;
5904;SDS011;2978;42.012;24.880;2023-02-11T16:13:18;31.03;;;16.20;;
5904;SDS011;2978;42.012;24.880;2023-02-11T16:15:44;35.40;;;16.37;;
5904;SDS011;2978;42.012;24.880;2023-02-11T16:18:29;31.37;;;15.20;;
5904;SDS011;2978;42.012;24.880;2023-02-11T16:20:54;38.63;;;17.13;;
5904;SDS011;2978;42.012;24.880;2023-02-11T16:23:22;31.57;;;15.33;;
5904;SDS011;2978;42.012;24.880;2023-02-11T16:25:57;31.97;;;13.33;;
5904;SDS011;2978;42.012;24.880;2023-02-11T16:28:29;31.00;;;16.10;;
5904;SDS011;2978;42.012;24.880;2023-02-11T16:30:54;21.73;;;12.47;;
5904;SDS011;2978;42.012;24.880;2023-02-11T16:33:21;24.73;;;11.37;;
5904;SDS011;2978;42.012;24.880;2023-02-11T16:35:47;20.17;;;11.47;;
5904;SDS011;2978;42.012;24.880;2023-02-11T16:38:13;25.67;;;12.03;;
5904;SDS011;2978;42.012;24.880;2023-02-11T16:40:39;18.80;;;10.17;;
5904;SDS011;2978;42.012;24.880;2023-02-11T16:43:05;20.50;;;8.70;;
5904;SDS011;2978;42.012;24.880;2023-02-11T16:45:30;14.50;;;7.20;;
5904;SDS011;2978;42.012;24.880;2023-02-11T16:47:55;12.90;;;6.87;;
5904;SDS011;2978;42.012;24.880;2023-02-11T16:50:22;14.13;;;8.10;;
5904;SDS011;2978;42.012;24.880;2023-02-11T16:52:48;21.67;;;8.80;;
5904;SDS011;2978;42.012;24.880;2023-02-11T16:55:16;15.03;;;8.20;;
5904;SDS011;2978;42.012;24.880;2023-02-11T16:57:42;21.87;;;10.37;;
5904;SDS011;2978;42.012;24.880;2023-02-11T17:00:07;18.20;;;9.20;;
5904;SDS011;2978;42.012;24.880;2023-02-11T17:02:35;23.63;;;14.23;;
5904;SDS011;2978;42.012;24.880;2023-02-11T17:05:05;26.87;;;14.50;;
5904;SDS011;2978;42.012;24.880;2023-02-11T17:07:31;17.53;;;9.93;;
5904;SDS011;2978;42.012;24.880;2023-02-11T17:09:57;17.07;;;8.00;;
5904;SDS011;2978;42.012;24.880;2023-02-11T17:12:23;12.23;;;7.33;;
5904;SDS011;2978;42.012;24.880;2023-02-11T17:14:51;12.00;;;7.57;;
5904;SDS011;2978;42.012;24.880;2023-02-11T17:17:17;12.90;;;7.50;;
5904;SDS011;2978;42.012;24.880;2023-02-11T17:19:42;7.47;;;4.90;;
5904;SDS011;2978;42.012;24.880;2023-02-11T17:22:09;13.00;;;7.67;;
5904;SDS011;2978;42.012;24.880;2023-02-11T17:24:35;17.63;;;7.70;;
5904;SDS011;2978;42.012;24.880;2023-02-11T17:27:01;22.87;;;8.17;;
5904;SDS011;2978;42.012;24.880;2023-02-11T17:29:26;10.20;;;6.70;;
5904;SDS011;2978;42.012;24.880;2023-02-11T17:31:52;19.13;;;7.27;;
5904;SDS011;2978;42.012;24.880;2023-02-11T17:34:18;12.00;;;6.20;;
5904;SDS011;2978;42.012;24.880;2023-02-11T17:36:45;15.23;;;6.67;;
5904;SDS011;2978;42.012;24.880;2023-02-11T17:39:10;10.67;;;5.83;;
5904;SDS011;2978;42.012;24.880;2023-02-11T17:41:36;12.20;;;5.23;;
5904;SDS011;2978;42.012;24.880;2023-02-11T17:44:03;9.57;;;5.27;;